Terminal Aerodrome Forecast
Issued by NWS Bismarck, ND

Home | Current Version | Previous Version | Text Only | Print | Product List | Glossary Off
Versions: 1 2 3 4 5 6 7 8 9 10 11 12 13 14 15 16

855
FTUS43 KBIS 210447 AAA
TAFISN
TAF AMD
KISN 210447Z 2105/2124 29030G40KT P6SM SCT250
     FM210700 28018G26KT P6SM SCT200 WS020/29035KT
     FM211700 27019G28KT P6SM BKN080
      AMD NOT SKED=

USA.gov is the U.S. government's official web portal to all federal, state and local government web resources and services.